Terminal Aerodrome Forecast
Issued by NWS Charleston, WV

Current Version | Previous Version | Graphics & Text | Print | Product List | Glossary On
Versions: 1 2 3 4 5 6 7 8 9 10 11 12 13 14 15 16 17 18 19 20
749
FTUS41 KRLX 061120
TAFBKW
TAF
KBKW 061120Z 0612/0712 VRB04KT P6SM FEW200
     FM061800 25006KT P6SM SCT140
     FM070000 00000KT P6SM BKN200=

USA.gov is the U.S. government's official web portal to all federal, state and local government web resources and services.